createdAt,value
2023-12-09T00:00:00.655Z,25.38
2023-12-09T00:02:28.496Z,24.40
2023-12-09T00:04:56.039Z,25.60
2023-12-09T00:07:23.504Z,26.38
2023-12-09T00:09:50.788Z,25.75
2023-12-09T00:12:18.758Z,27.42
2023-12-09T00:14:46.051Z,27.52
2023-12-09T00:17:13.927Z,26.30
2023-12-09T00:19:41.330Z,27.77
2023-12-09T00:22:09.443Z,28.85
2023-12-09T00:24:36.746Z,26.58
2023-12-09T00:27:04.630Z,28.15
2023-12-09T00:29:32.081Z,28.33
2023-12-09T00:31:59.480Z,28.38
2023-12-09T00:34:26.846Z,28.58
2023-12-09T00:36:54.173Z,28.52
2023-12-09T00:39:21.514Z,30.85
2023-12-09T00:41:50.907Z,29.60
2023-12-09T00:44:22.083Z,30.33
2023-12-09T00:46:49.552Z,31.50
2023-12-09T00:49:17.736Z,31.40
2023-12-09T00:51:45.358Z,30.02
2023-12-09T00:54:12.958Z,31.35
2023-12-09T00:56:40.292Z,31.88
2023-12-09T00:59:08.489Z,31.45
2023-12-09T01:01:36.567Z,32.05
2023-12-09T01:04:05.073Z,31.08
2023-12-09T01:06:32.982Z,31.73
2023-12-09T01:09:00.564Z,32.53
2023-12-09T01:11:28.421Z,31.95
2023-12-09T01:13:55.838Z,31.63
2023-12-09T01:16:23.177Z,30.58
2023-12-09T01:18:50.696Z,30.95
2023-12-09T01:21:18.371Z,30.80
2023-12-09T01:23:45.842Z,30.33
2023-12-09T01:26:13.235Z,31.17
2023-12-09T01:28:40.569Z,31.92
2023-12-09T01:31:07.950Z,32.05
2023-12-09T01:33:35.622Z,30.55
2023-12-09T01:36:03.182Z,30.42
2023-12-09T01:38:30.529Z,29.25
2023-12-09T01:40:57.999Z,29.88
2023-12-09T01:43:25.327Z,31.65
2023-12-09T01:45:55.078Z,30.77
2023-12-09T01:48:23.497Z,31.10
2023-12-09T01:50:51.291Z,29.92
2023-12-09T01:53:18.711Z,30.80
2023-12-09T01:55:47.605Z,31.33
2023-12-09T01:58:16.332Z,32.38
2023-12-09T02:00:44.101Z,32.05
2023-12-09T02:03:11.587Z,31.65
2023-12-09T02:05:39.035Z,32.85
2023-12-09T02:08:06.331Z,31.85
2023-12-09T02:10:33.799Z,32.58
2023-12-09T02:13:07.260Z,30.35
2023-12-09T02:15:46.229Z,31.38
2023-12-09T02:18:13.909Z,31.45
2023-12-09T02:20:41.530Z,29.95
2023-12-09T02:23:12.748Z,30.40
2023-12-09T02:25:41.554Z,30.02
2023-12-09T02:28:24.666Z,28.88
2023-12-09T02:31:04.771Z,29.27
2023-12-09T02:33:33.069Z,28.73
2023-12-09T02:36:02.474Z,28.83
2023-12-09T02:38:31.618Z,29.40
2023-12-09T02:40:59.560Z,29.27
2023-12-09T02:43:26.935Z,28.85
2023-12-09T02:45:54.260Z,29.85
2023-12-09T02:48:24.189Z,27.75
2023-12-09T02:50:51.810Z,28.02
2023-12-09T02:53:19.196Z,27.63
2023-12-09T02:55:46.689Z,27.27
2023-12-09T02:58:13.984Z,24.42
2023-12-09T03:00:41.361Z,24.92
2023-12-09T03:03:08.862Z,22.80
2023-12-09T03:05:36.317Z,21.98
2023-12-09T03:08:03.685Z,22.23
2023-12-09T03:10:31.047Z,22.33
2023-12-09T03:12:59.660Z,22.90
2023-12-09T03:15:27.012Z,22.63
2023-12-09T03:17:54.505Z,21.02
2023-12-09T03:20:22.078Z,20.08
2023-12-09T03:22:49.542Z,20.38
2023-12-09T03:25:16.883Z,19.63
2023-12-09T03:27:44.217Z,18.95
2023-12-09T03:30:12.050Z,18.60
2023-12-09T03:32:40.389Z,18.17
2023-12-09T03:35:08.522Z,17.77
2023-12-09T03:37:35.845Z,18.02
2023-12-09T03:40:04.853Z,17.02
2023-12-09T03:42:32.191Z,17.38
2023-12-09T03:44:59.626Z,17.25
2023-12-09T03:47:29.572Z,15.20
2023-12-09T03:49:57.948Z,13.82
2023-12-09T03:52:25.661Z,11.45
2023-12-09T03:54:53.830Z,11.48
2023-12-09T03:57:21.241Z,10.63
2023-12-09T03:59:48.561Z,11.85
2023-12-09T04:02:15.913Z,12.70
2023-12-09T04:04:43.201Z,11.80
2023-12-09T04:07:10.608Z,12.30
2023-12-09T04:09:38.060Z,11.85
2023-12-09T04:12:06.020Z,11.82
2023-12-09T04:14:33.487Z,12.55
2023-12-09T04:17:00.791Z,12.77
2023-12-09T04:19:28.301Z,12.15
2023-12-09T04:21:55.849Z,12.65
2023-12-09T04:24:23.135Z,12.57
2023-12-09T04:26:50.445Z,11.48
2023-12-09T04:29:17.748Z,10.93
2023-12-09T04:31:45.438Z,10.43
2023-12-09T04:34:12.749Z,9.73
2023-12-09T04:36:40.163Z,9.85
2023-12-09T04:39:08.433Z,9.75
2023-12-09T04:41:35.821Z,9.88
2023-12-09T04:44:03.080Z,9.77
2023-12-09T04:46:31.096Z,10.00
2023-12-09T04:48:58.790Z,9.85
2023-12-09T04:51:26.244Z,10.10
2023-12-09T04:53:53.623Z,10.43
2023-12-09T04:56:21.047Z,15.98
2023-12-09T04:58:48.457Z,17.83
2023-12-09T05:01:16.342Z,23.45
2023-12-09T05:03:43.734Z,24.77
2023-12-09T05:06:11.338Z,26.77
2023-12-09T05:08:40.264Z,26.85
2023-12-09T05:11:07.609Z,28.35
2023-12-09T05:13:35.570Z,30.40
2023-12-09T05:16:03.700Z,30.05
2023-12-09T05:18:31.383Z,30.02
2023-12-09T05:20:59.042Z,28.52
2023-12-09T05:23:26.352Z,28.10
2023-12-09T05:25:53.629Z,26.98
2023-12-09T05:28:20.949Z,27.92
2023-12-09T05:30:49.333Z,26.73
2023-12-09T05:33:16.915Z,28.17
2023-12-09T05:35:44.900Z,29.10
2023-12-09T05:38:12.297Z,29.52
2023-12-09T05:40:39.671Z,30.80
2023-12-09T05:43:07.050Z,31.70
2023-12-09T05:45:34.524Z,32.65
2023-12-09T05:48:01.985Z,32.13
2023-12-09T05:50:29.374Z,32.70
2023-12-09T05:52:59.096Z,32.65
2023-12-09T05:55:27.867Z,33.63
2023-12-09T05:57:55.262Z,33.80
2023-12-09T06:00:22.616Z,34.22
2023-12-09T06:02:50.054Z,34.90
2023-12-09T06:05:17.364Z,33.63
2023-12-09T06:07:44.822Z,37.00
2023-12-09T06:10:14.420Z,35.47
2023-12-09T06:12:42.913Z,36.60
2023-12-09T06:15:10.659Z,36.15
2023-12-09T06:17:38.344Z,35.58
2023-12-09T06:20:09.404Z,36.33
2023-12-09T06:22:37.068Z,38.08
2023-12-09T06:25:04.665Z,36.22
2023-12-09T06:27:32.010Z,35.47
2023-12-09T06:29:59.352Z,36.25
2023-12-09T06:32:27.077Z,36.45
2023-12-09T06:34:54.510Z,35.15
2023-12-09T06:37:21.829Z,34.15
2023-12-09T06:39:49.220Z,35.95
2023-12-09T06:42:16.651Z,34.80
2023-12-09T06:44:44.272Z,36.30
2023-12-09T06:47:11.603Z,36.03
2023-12-09T06:49:39.074Z,36.65
2023-12-09T06:52:06.714Z,36.97
2023-12-09T06:54:34.158Z,36.38
2023-12-09T06:57:01.740Z,35.20
2023-12-09T06:59:29.129Z,35.38
2023-12-09T07:01:59.824Z,35.97
2023-12-09T07:04:27.409Z,35.38
2023-12-09T07:07:00.528Z,37.15
2023-12-09T07:09:28.017Z,36.08
2023-12-09T07:12:01.908Z,34.90
2023-12-09T07:14:30.341Z,34.40
2023-12-09T07:16:58.009Z,33.85
2023-12-09T07:19:25.564Z,35.78
2023-12-09T07:21:53.915Z,35.15
2023-12-09T07:24:21.433Z,33.72
2023-12-09T07:26:48.930Z,34.70
2023-12-09T07:29:16.328Z,34.30
2023-12-09T07:31:43.654Z,35.42
2023-12-09T07:34:17.527Z,34.55
2023-12-09T07:36:45.281Z,35.42
2023-12-09T07:39:12.738Z,33.80
2023-12-09T07:41:41.490Z,33.20
2023-12-09T07:44:08.867Z,33.42
2023-12-09T07:46:37.205Z,33.15
2023-12-09T07:49:04.599Z,33.20
2023-12-09T07:51:32.032Z,31.02
2023-12-09T07:53:59.313Z,31.40
2023-12-09T07:56:26.722Z,30.30
2023-12-09T07:58:54.023Z,31.00
2023-12-09T08:01:21.634Z,31.98
2023-12-09T08:03:49.199Z,34.88
2023-12-09T08:06:17.235Z,35.15
2023-12-09T08:08:44.886Z,31.83
2023-12-09T08:11:12.215Z,36.33
2023-12-09T08:13:39.602Z,37.83
2023-12-09T08:16:07.363Z,36.85
2023-12-09T08:18:34.749Z,33.10
2023-12-09T08:21:03.217Z,30.40
2023-12-09T08:23:31.022Z,31.88
2023-12-09T08:26:16.256Z,28.65
2023-12-09T08:28:43.751Z,26.90
2023-12-09T08:31:11.151Z,25.95
2023-12-09T08:33:40.766Z,24.95
2023-12-09T08:36:10.793Z,24.83
2023-12-09T08:38:46.766Z,22.27
2023-12-09T08:41:25.719Z,26.48
2023-12-09T08:44:20.649Z,26.83
2023-12-09T08:46:48.174Z,24.48
2023-12-09T08:49:20.646Z,23.13
2023-12-09T08:51:49.161Z,24.05
2023-12-09T08:54:41.481Z,26.10
2023-12-09T08:57:12.078Z,28.50
2023-12-09T08:59:39.600Z,30.38
2023-12-09T09:02:09.384Z,28.05
2023-12-09T09:04:37.009Z,28.55
2023-12-09T09:07:07.798Z,27.05
2023-12-09T09:09:35.313Z,25.55
2023-12-09T09:12:05.414Z,23.35
2023-12-09T09:14:32.749Z,24.27
2023-12-09T09:17:02.447Z,22.98
2023-12-09T09:19:30.038Z,22.50
2023-12-09T09:21:59.377Z,23.20
2023-12-09T09:24:27.316Z,22.73
2023-12-09T09:27:02.404Z,21.63
2023-12-09T09:29:29.886Z,21.73
2023-12-09T09:32:03.315Z,21.98
2023-12-09T09:34:30.836Z,22.33
2023-12-09T09:37:03.008Z,22.00
2023-12-09T09:40:12.910Z,21.52
2023-12-09T09:43:08.136Z,22.10
2023-12-09T09:54:50.514Z,18.10
2023-12-09T09:57:29.641Z,18.58
2023-12-09T10:03:49.620Z,17.30
2023-12-09T10:06:25.380Z,17.13
2023-12-09T10:09:20.554Z,16.83
2023-12-09T10:11:50.423Z,16.52
2023-12-09T10:14:26.727Z,16.23
2023-12-09T10:16:54.835Z,16.05
2023-12-09T10:19:22.593Z,16.80
2023-12-09T10:21:52.358Z,16.30
2023-12-09T10:24:28.340Z,16.20
2023-12-09T10:27:00.474Z,14.80
2023-12-09T10:29:27.996Z,14.50
2023-12-09T10:31:55.526Z,14.05
2023-12-09T10:34:22.934Z,13.60
2023-12-09T10:36:50.506Z,13.65
2023-12-09T10:39:20.517Z,14.10
2023-12-09T10:41:50.430Z,15.23
2023-12-09T10:44:19.179Z,15.10
2023-12-09T10:46:51.375Z,14.73
2023-12-09T10:52:27.738Z,16.90
2023-12-09T10:54:55.610Z,16.77
2023-12-09T10:57:25.042Z,24.13
2023-12-09T10:59:53.524Z,18.95
2023-12-09T11:02:22.443Z,16.98
2023-12-09T11:05:11.053Z,16.67
2023-12-09T11:07:41.983Z,18.23
2023-12-09T11:10:14.070Z,16.83
2023-12-09T11:13:10.171Z,18.25
2023-12-09T11:15:37.574Z,17.83
2023-12-09T11:18:32.881Z,16.45
2023-12-09T11:21:14.686Z,18.30
2023-12-09T11:23:50.941Z,17.63
2023-12-09T11:26:22.048Z,28.38
2023-12-09T11:29:01.683Z,22.77
2023-12-09T11:31:35.957Z,23.15
2023-12-09T11:34:10.085Z,22.88
2023-12-09T11:36:39.821Z,23.40
2023-12-09T11:39:12.794Z,21.05
2023-12-09T11:41:43.190Z,19.95
2023-12-09T11:44:11.405Z,20.42
2023-12-09T11:47:05.908Z,20.17
2023-12-09T11:49:34.250Z,19.60
2023-12-09T11:52:01.640Z,20.80
2023-12-09T11:54:31.186Z,20.17
2023-12-09T12:04:22.364Z,18.08
2023-12-09T12:06:52.197Z,18.90
2023-12-09T12:09:19.711Z,16.20
2023-12-09T12:11:47.053Z,16.15
2023-12-09T12:14:34.507Z,15.63
2023-12-09T12:17:09.708Z,16.40
2023-12-09T12:19:39.296Z,15.10
2023-12-09T12:22:10.225Z,22.30
2023-12-09T12:24:45.044Z,25.27
2023-12-09T12:27:12.694Z,26.92
2023-12-09T12:29:41.826Z,27.38
2023-12-09T12:32:13.108Z,28.63
2023-12-09T12:34:49.210Z,28.40
2023-12-09T12:37:18.871Z,27.15
2023-12-09T12:39:47.947Z,27.95
2023-12-09T12:42:15.547Z,28.13
2023-12-09T12:45:21.245Z,28.00
2023-12-09T12:47:50.240Z,26.30
2023-12-09T12:50:17.897Z,26.67
2023-12-09T12:52:45.729Z,26.23
2023-12-09T12:55:15.802Z,26.52
2023-12-09T12:57:44.711Z,28.48
2023-12-09T13:00:18.764Z,27.70
2023-12-09T13:02:46.379Z,27.80
2023-12-09T13:05:13.957Z,28.17
2023-12-09T13:07:41.360Z,27.92
2023-12-09T13:10:11.451Z,26.00
2023-12-09T13:12:39.030Z,26.50
2023-12-09T13:15:07.646Z,27.55
2023-12-09T13:17:35.805Z,27.33
2023-12-09T13:20:08.053Z,27.25
2023-12-09T13:22:35.628Z,28.85
2023-12-09T13:25:14.718Z,29.95
2023-12-09T13:27:51.992Z,28.92
2023-12-09T13:30:19.622Z,31.05
2023-12-09T13:32:47.370Z,30.02
2023-12-09T13:36:01.997Z,30.90
2023-12-09T13:38:29.967Z,31.45
2023-12-09T13:41:04.536Z,31.73
2023-12-09T13:43:32.137Z,31.00
2023-12-09T13:46:02.736Z,31.90
2023-12-09T13:48:33.277Z,30.88
2023-12-09T13:51:00.947Z,32.35
2023-12-09T13:53:29.783Z,30.23
2023-12-09T13:55:59.922Z,29.58
2023-12-09T13:58:29.603Z,30.67
2023-12-09T14:01:03.214Z,32.97
2023-12-09T14:03:30.761Z,33.03
2023-12-09T14:06:00.544Z,35.95
2023-12-09T14:08:28.584Z,30.33
2023-12-09T14:10:58.775Z,28.98
2023-12-09T14:13:30.385Z,29.13
2023-12-09T14:16:00.103Z,29.27
2023-12-09T14:18:27.791Z,29.15
2023-12-09T14:21:01.902Z,31.70
2023-12-09T14:23:30.520Z,45.25
2023-12-09T14:26:00.217Z,37.92
2023-12-09T14:29:18.867Z,32.80
2023-12-09T14:31:52.779Z,35.03
2023-12-09T14:34:23.082Z,34.53
2023-12-09T14:36:50.690Z,34.55
2023-12-09T14:39:18.592Z,37.45
2023-12-09T14:41:46.052Z,36.40
2023-12-09T14:44:15.819Z,37.63
2023-12-09T14:46:51.710Z,35.75
2023-12-09T14:49:21.936Z,38.33
2023-12-09T14:51:49.693Z,38.65
2023-12-09T14:54:18.386Z,39.88
2023-12-09T14:56:47.460Z,41.00
2023-12-09T14:59:19.914Z,42.33
2023-12-09T15:01:47.384Z,41.10
2023-12-09T15:04:17.221Z,43.22
2023-12-09T15:06:57.806Z,45.25
2023-12-09T15:09:25.561Z,43.45
2023-12-09T15:11:53.524Z,52.70
2023-12-09T15:14:32.021Z,49.67
2023-12-09T15:16:59.516Z,45.72
2023-12-09T15:20:19.680Z,45.35
2023-12-09T15:22:50.826Z,43.72
2023-12-09T15:25:18.429Z,44.85
2023-12-09T15:27:49.080Z,43.30
2023-12-09T15:30:19.971Z,43.17
2023-12-09T15:32:47.692Z,41.67
2023-12-09T15:35:15.233Z,45.20
2023-12-09T15:37:44.005Z,50.88
2023-12-09T15:40:14.235Z,47.90
2023-12-09T15:42:42.317Z,48.92
2023-12-09T15:45:10.637Z,56.53
2023-12-09T15:47:38.278Z,54.80
2023-12-09T15:53:15.179Z,44.63
2023-12-09T15:55:45.300Z,49.13
2023-12-09T15:58:13.020Z,49.05
2023-12-09T16:00:41.937Z,48.70
2023-12-09T16:03:20.551Z,46.75
2023-12-09T16:05:48.523Z,45.45
2023-12-09T16:08:15.920Z,41.80
2023-12-09T16:10:43.343Z,42.08
2023-12-09T16:13:10.802Z,39.92
2023-12-09T16:15:38.265Z,39.20
2023-12-09T16:18:10.017Z,39.05
2023-12-09T16:20:40.048Z,42.25
2023-12-09T16:23:10.454Z,41.20
2023-12-09T16:25:41.229Z,43.75
2023-12-09T16:28:09.905Z,41.88
2023-12-09T16:30:40.759Z,41.95
2023-12-09T16:33:08.427Z,41.92
2023-12-09T16:35:36.056Z,41.63
2023-12-09T16:38:03.824Z,41.95
2023-12-09T16:40:34.319Z,42.45
2023-12-09T16:43:02.024Z,42.35
2023-12-09T16:45:36.689Z,42.03
2023-12-09T16:48:05.438Z,42.08
2023-12-09T16:50:33.362Z,42.38
2023-12-09T16:55:47.947Z,43.28
2023-12-09T16:58:21.608Z,42.67
2023-12-09T17:00:49.213Z,44.35
2023-12-09T17:03:16.928Z,44.38
2023-12-09T17:05:44.270Z,43.95
2023-12-09T17:08:11.870Z,44.17
2023-12-09T17:10:41.792Z,46.75
2023-12-09T17:13:09.251Z,46.92
2023-12-09T17:15:39.045Z,47.47
2023-12-09T17:18:09.279Z,46.67
2023-12-09T17:20:41.174Z,46.65
2023-12-09T17:23:08.658Z,48.28
2023-12-09T17:25:36.083Z,46.85
2023-12-09T17:28:03.470Z,46.42
2023-12-09T17:30:33.112Z,50.17
2023-12-09T17:33:00.671Z,47.15
2023-12-09T17:35:30.495Z,47.85
2023-12-09T17:37:58.496Z,48.75
2023-12-09T17:40:25.976Z,47.45
2023-12-09T17:42:53.443Z,54.63
2023-12-09T17:45:21.010Z,55.17
2023-12-09T17:47:48.494Z,50.75
2023-12-09T17:50:17.346Z,49.10
2023-12-09T17:52:54.596Z,52.63
2023-12-09T17:55:21.980Z,50.47
2023-12-09T17:57:51.569Z,50.65
2023-12-09T18:00:21.685Z,52.78
2023-12-09T18:02:55.038Z,50.50
2023-12-09T18:05:23.728Z,52.10
2023-12-09T18:08:00.645Z,53.47
2023-12-09T18:11:01.166Z,54.53
2023-12-09T18:13:33.039Z,54.15
2023-12-09T18:16:00.641Z,49.90
2023-12-09T18:18:31.326Z,51.90
2023-12-09T18:21:00.255Z,53.05
2023-12-09T18:23:31.503Z,53.72
2023-12-09T18:25:59.943Z,50.38
2023-12-09T18:28:31.315Z,50.63
2023-12-09T18:31:01.402Z,52.83
2023-12-09T18:33:32.504Z,54.50
2023-12-09T18:36:52.771Z,53.63
2023-12-09T18:39:22.098Z,50.70
2023-12-09T18:41:50.878Z,49.35
2023-12-09T18:44:18.375Z,51.58
2023-12-09T18:46:47.811Z,52.92
2023-12-09T18:49:20.639Z,52.40
2023-12-09T18:51:51.217Z,51.95
2023-12-09T18:54:22.933Z,52.78
2023-12-09T18:57:31.627Z,54.70
2023-12-09T19:00:02.302Z,54.13
2023-12-09T19:02:32.943Z,52.85
2023-12-09T19:05:00.831Z,53.97
2023-12-09T19:07:32.983Z,55.60
2023-12-09T19:10:06.299Z,53.58
2023-12-09T19:13:00.356Z,52.58
2023-12-09T19:15:27.858Z,51.38
2023-12-09T19:17:55.441Z,52.53
2023-12-09T19:20:23.316Z,53.58
2023-12-09T19:22:50.946Z,55.20
2023-12-09T19:25:18.456Z,53.90
2023-12-09T19:27:48.535Z,51.95
2023-12-09T19:30:16.376Z,50.63
2023-12-09T19:32:46.223Z,51.20
2023-12-09T19:35:21.853Z,52.97
2023-12-09T19:37:49.786Z,60.28
2023-12-09T19:40:17.308Z,53.63
2023-12-09T19:42:44.753Z,53.85
2023-12-09T19:45:12.299Z,53.63
2023-12-09T19:47:41.941Z,53.78
2023-12-09T19:54:06.143Z,52.78
2023-12-09T19:56:42.771Z,56.13
2023-12-09T19:59:11.738Z,53.85
2023-12-09T20:01:41.639Z,50.42
2023-12-09T20:04:12.117Z,53.28
2023-12-09T20:06:41.520Z,53.08
2023-12-09T20:09:09.505Z,54.17
2023-12-09T20:11:36.909Z,52.70
2023-12-09T20:14:04.278Z,54.08
2023-12-09T20:16:33.897Z,53.95
2023-12-09T20:19:06.617Z,53.20
2023-12-09T20:21:42.372Z,51.00
2023-12-09T20:24:10.007Z,54.33
2023-12-09T20:26:37.423Z,52.67
2023-12-09T20:29:05.678Z,54.13
2023-12-09T20:31:35.676Z,53.45
2023-12-09T20:34:05.183Z,52.60
2023-12-09T20:36:32.772Z,55.25
2023-12-09T20:39:02.780Z,52.55
2023-12-09T20:41:30.135Z,54.88
2023-12-09T20:43:59.758Z,51.03
2023-12-09T20:46:30.779Z,54.30
2023-12-09T20:49:04.301Z,54.65
2023-12-09T20:52:01.324Z,53.97
2023-12-09T20:54:28.753Z,53.17
2023-12-09T20:56:56.157Z,53.97
2023-12-09T20:59:23.605Z,53.80
2023-12-09T21:01:54.814Z,55.22
2023-12-09T21:04:24.279Z,53.63
2023-12-09T21:06:52.185Z,54.13
2023-12-09T21:09:22.376Z,56.67
2023-12-09T21:11:51.969Z,55.67
2023-12-09T21:14:20.385Z,55.97
2023-12-09T21:16:53.299Z,56.72
2023-12-09T21:19:22.903Z,53.72
2023-12-09T21:21:52.793Z,55.72
2023-12-09T21:24:20.228Z,56.40
2023-12-09T21:26:48.004Z,57.35
2023-12-09T21:29:15.461Z,56.97
2023-12-09T21:31:43.703Z,59.22
2023-12-09T21:34:13.188Z,59.15
2023-12-09T21:36:43.523Z,61.45
2023-12-09T21:39:13.711Z,58.53
2023-12-09T21:41:43.353Z,59.42
2023-12-09T21:44:13.880Z,59.97
2023-12-09T21:46:42.458Z,59.45
2023-12-09T21:49:12.230Z,59.20
2023-12-09T21:51:41.140Z,60.00
2023-12-09T21:54:10.028Z,59.47
2023-12-09T21:56:37.383Z,59.60
2023-12-09T21:59:12.248Z,59.08
2023-12-09T22:01:40.398Z,58.92
2023-12-09T22:04:08.194Z,58.97
2023-12-09T22:06:35.740Z,57.13
2023-12-09T22:09:05.382Z,58.40
2023-12-09T22:11:32.802Z,58.78
2023-12-09T22:14:00.285Z,64.30
2023-12-09T22:16:31.665Z,61.30
2023-12-09T22:19:01.941Z,61.05
2023-12-09T22:21:29.824Z,61.78
2023-12-09T22:23:57.228Z,60.25
2023-12-09T22:26:25.162Z,58.65
2023-12-09T22:28:55.140Z,55.88
2023-12-09T22:31:22.511Z,54.83
2023-12-09T22:33:53.184Z,55.92
2023-12-09T22:36:21.652Z,54.22
2023-12-09T22:38:49.742Z,54.40
2023-12-09T22:41:24.222Z,58.72
2023-12-09T22:43:54.120Z,56.80
2023-12-09T22:46:29.785Z,58.08
2023-12-09T22:48:59.110Z,58.60
2023-12-09T22:51:37.816Z,56.22
2023-12-09T22:54:05.741Z,58.00
2023-12-09T22:56:33.201Z,57.63
2023-12-09T22:59:02.766Z,55.75
2023-12-09T23:01:33.821Z,57.08
2023-12-09T23:04:02.131Z,58.33
2023-12-09T23:06:31.949Z,56.38
2023-12-09T23:08:59.510Z,55.55
2023-12-09T23:11:27.796Z,57.78
2023-12-09T23:13:58.150Z,57.65
2023-12-09T23:16:25.655Z,54.95
2023-12-09T23:18:53.083Z,56.90
2023-12-09T23:21:20.688Z,55.25
2023-12-09T23:23:48.277Z,56.33
2023-12-09T23:26:15.692Z,54.55
2023-12-09T23:28:43.063Z,57.10
2023-12-09T23:31:10.517Z,54.80
2023-12-09T23:33:38.101Z,55.53
2023-12-09T23:36:05.728Z,54.60
2023-12-09T23:38:33.182Z,55.75
2023-12-09T23:41:01.264Z,55.47
2023-12-09T23:43:28.703Z,54.28
2023-12-09T23:46:04.458Z,56.10
2023-12-09T23:48:34.548Z,55.20
2023-12-09T23:51:01.956Z,54.83
2023-12-09T23:53:29.289Z,56.10
2023-12-09T23:55:58.613Z,55.75
2023-12-09T23:58:31.750Z,56.80
